createdAt,value
2023-01-20T00:01:46.701Z,11.73
2023-01-20T00:04:15.689Z,16.80
2023-01-20T00:06:43.869Z,12.07
2023-01-20T00:09:16.668Z,14.37
2023-01-20T00:11:45.571Z,13.37
2023-01-20T00:14:15.493Z,12.03
2023-01-20T00:16:43.922Z,12.03
2023-01-20T00:19:14.246Z,16.33
2023-01-20T00:21:42.935Z,11.00
2023-01-20T00:24:11.186Z,16.30
2023-01-20T00:26:39.385Z,11.13
2023-01-20T00:29:07.723Z,11.47
2023-01-20T00:31:37.389Z,13.00
2023-01-20T00:34:08.376Z,13.93
2023-01-20T00:36:36.566Z,14.63
2023-01-20T00:39:05.873Z,13.27
2023-01-20T00:41:34.200Z,12.30
2023-01-20T00:44:02.361Z,14.17
2023-01-20T00:46:30.583Z,11.60
2023-01-20T00:49:00.112Z,11.50
2023-01-20T00:51:28.425Z,10.57
2023-01-20T00:53:56.670Z,10.50
2023-01-20T00:56:24.832Z,13.63
2023-01-20T00:58:55.100Z,15.70
2023-01-20T01:01:47.306Z,12.00
2023-01-20T01:04:17.019Z,13.20
2023-01-20T01:06:45.189Z,13.20
2023-01-20T01:09:13.353Z,12.33
2023-01-20T01:11:41.475Z,11.50
2023-01-20T01:14:09.796Z,8.63
2023-01-20T01:16:38.331Z,14.67
2023-01-20T01:19:06.541Z,13.27
2023-01-20T01:21:36.099Z,10.83
2023-01-20T01:24:04.323Z,15.27
2023-01-20T01:26:32.504Z,12.60
2023-01-20T01:29:00.643Z,12.93
2023-01-20T01:31:28.890Z,10.83
2023-01-20T01:33:57.080Z,11.70
2023-01-20T01:36:25.329Z,11.03
2023-01-20T01:38:58.160Z,12.00
2023-01-20T01:41:27.807Z,11.97
2023-01-20T01:44:08.621Z,11.10
2023-01-20T01:46:37.603Z,13.87
2023-01-20T01:49:11.356Z,12.67
2023-01-20T01:51:44.295Z,14.83
2023-01-20T01:54:17.044Z,14.53
2023-01-20T01:56:47.601Z,15.20
2023-01-20T01:59:17.520Z,15.50
2023-01-20T02:01:51.405Z,14.10
2023-01-20T02:04:22.092Z,13.30
2023-01-20T02:06:54.661Z,15.70
2023-01-20T02:09:25.687Z,13.30
2023-01-20T02:11:58.795Z,15.70
2023-01-20T02:14:32.875Z,15.43
2023-01-20T02:17:10.763Z,19.53
2023-01-20T02:20:15.301Z,15.00
2023-01-20T02:22:48.415Z,17.43
2023-01-20T02:25:47.761Z,16.10
2023-01-20T02:28:58.162Z,14.57
2023-01-20T02:31:59.054Z,14.37
2023-01-20T02:34:32.096Z,18.10
2023-01-20T02:37:08.323Z,17.73
2023-01-20T02:39:45.400Z,16.40
2023-01-20T02:42:20.382Z,16.40
2023-01-20T02:45:00.201Z,15.87
2023-01-20T02:47:42.353Z,16.77
2023-01-20T02:50:26.926Z,16.17
2023-01-20T02:52:59.783Z,19.17
2023-01-20T02:55:35.138Z,16.17
2023-01-20T02:58:08.557Z,15.27
2023-01-20T03:00:42.368Z,17.20
2023-01-20T03:03:17.070Z,14.30
2023-01-20T03:05:52.833Z,16.70
2023-01-20T03:08:23.961Z,21.60
2023-01-20T03:10:54.201Z,18.00
2023-01-20T03:13:28.659Z,20.93
2023-01-20T03:16:01.396Z,17.20
2023-01-20T03:18:32.497Z,18.57
2023-01-20T03:21:01.872Z,17.27
2023-01-20T03:23:34.133Z,20.83
2023-01-20T03:26:08.470Z,22.07
2023-01-20T03:28:36.800Z,20.03
2023-01-20T03:31:14.589Z,22.83
2023-01-20T03:33:45.098Z,19.10
2023-01-20T03:36:15.800Z,22.60
2023-01-20T03:38:44.640Z,19.67
2023-01-20T03:41:27.487Z,21.03
2023-01-20T03:44:02.314Z,24.07
2023-01-20T03:46:41.723Z,26.37
2023-01-20T03:49:19.170Z,24.67
2023-01-20T03:52:00.528Z,26.17
2023-01-20T03:54:37.999Z,23.77
2023-01-20T03:57:11.854Z,24.93
2023-01-20T03:59:43.349Z,24.53
2023-01-20T04:02:12.938Z,24.63
2023-01-20T04:04:45.512Z,26.60
2023-01-20T04:07:19.402Z,30.67
2023-01-20T04:09:53.028Z,24.03
2023-01-20T04:12:21.290Z,23.60
2023-01-20T04:14:49.509Z,24.73
2023-01-20T04:17:17.989Z,29.77
2023-01-20T04:19:47.590Z,26.67
2023-01-20T04:22:21.546Z,24.77
2023-01-20T04:24:54.704Z,29.60
2023-01-20T04:27:22.874Z,28.13
2023-01-20T04:29:51.071Z,27.63
2023-01-20T04:32:19.317Z,25.97
2023-01-20T04:34:51.383Z,30.03
2023-01-20T04:37:19.592Z,25.60
2023-01-20T04:39:47.773Z,26.80
2023-01-20T04:42:15.987Z,26.10
2023-01-20T04:44:44.202Z,26.83
2023-01-20T04:47:12.377Z,23.97
2023-01-20T04:49:40.591Z,25.80
2023-01-20T04:52:10.143Z,22.93
2023-01-20T04:54:38.364Z,25.43
2023-01-20T04:57:06.513Z,23.93
2023-01-20T04:59:34.805Z,24.73
2023-01-20T05:02:03.066Z,26.53
2023-01-20T05:04:43.207Z,24.93
2023-01-20T05:07:13.345Z,24.27
2023-01-20T05:09:41.582Z,29.37
2023-01-20T05:12:10.275Z,26.03
2023-01-20T05:14:38.493Z,27.20
2023-01-20T05:17:06.661Z,26.07
2023-01-20T05:19:34.822Z,26.87
2023-01-20T05:22:03.036Z,28.03
2023-01-20T05:24:32.596Z,27.67
2023-01-20T05:27:01.887Z,35.87
2023-01-20T05:29:30.345Z,24.93
2023-01-20T05:31:58.495Z,27.87
2023-01-20T05:34:26.688Z,29.40
2023-01-20T05:36:55.631Z,27.80
2023-01-20T05:39:23.815Z,26.87
2023-01-20T05:41:53.448Z,23.93
2023-01-20T05:44:21.630Z,26.03
2023-01-20T05:46:49.863Z,26.97
2023-01-20T05:49:18.045Z,25.27
2023-01-20T05:51:46.276Z,24.20
2023-01-20T05:54:14.477Z,23.73
2023-01-20T05:56:42.630Z,24.60
2023-01-20T05:59:12.320Z,23.67
2023-01-20T06:01:40.631Z,26.43
2023-01-20T06:04:09.069Z,24.40
2023-01-20T06:06:37.464Z,27.67
2023-01-20T06:09:06.622Z,30.13
2023-01-20T06:11:35.285Z,26.03
2023-01-20T06:14:03.644Z,25.53
2023-01-20T06:16:33.310Z,26.07
2023-01-20T06:19:01.912Z,26.07
2023-01-20T06:21:30.443Z,28.13
2023-01-20T06:23:58.989Z,22.40
2023-01-20T06:26:27.536Z,26.57
2023-01-20T06:29:00.394Z,25.27
2023-01-20T06:31:55.006Z,25.33
2023-01-20T06:34:23.204Z,25.87
2023-01-20T06:36:51.381Z,22.57
2023-01-20T06:39:19.572Z,25.90
2023-01-20T06:41:47.783Z,23.23
2023-01-20T06:44:17.261Z,24.87
2023-01-20T06:46:48.174Z,25.07
2023-01-20T06:49:18.035Z,23.13
2023-01-20T06:51:47.801Z,24.73
2023-01-20T06:54:15.965Z,24.80
2023-01-20T06:56:44.297Z,24.53
2023-01-20T06:59:12.921Z,23.37
2023-01-20T07:02:06.567Z,26.33
2023-01-20T07:04:36.168Z,29.30
2023-01-20T07:07:04.386Z,33.47
2023-01-20T07:09:32.656Z,27.73
2023-01-20T07:12:00.827Z,24.37
2023-01-20T07:14:29.035Z,29.33
2023-01-20T07:16:57.194Z,24.53
2023-01-20T07:19:25.388Z,18.47
2023-01-20T07:21:54.917Z,21.70
2023-01-20T07:24:23.087Z,25.00
2023-01-20T07:26:53.791Z,24.37
2023-01-20T07:29:22.198Z,20.23
2023-01-20T07:31:50.448Z,27.73
2023-01-20T07:34:18.660Z,19.03
2023-01-20T07:36:46.861Z,24.30
2023-01-20T07:39:20.070Z,23.07
2023-01-20T07:41:49.763Z,22.37
2023-01-20T07:44:18.335Z,23.27
2023-01-20T07:46:46.598Z,22.73
2023-01-20T07:49:14.984Z,33.83
2023-01-20T07:51:43.619Z,27.87
2023-01-20T07:54:12.859Z,23.63
2023-01-20T07:56:42.429Z,28.87
2023-01-20T07:59:12.401Z,26.00
2023-01-20T08:01:40.715Z,30.27
2023-01-20T08:04:08.891Z,26.80
2023-01-20T08:06:37.061Z,22.23
2023-01-20T08:09:05.397Z,24.73
2023-01-20T08:11:33.553Z,27.37
2023-01-20T08:14:06.365Z,29.53
2023-01-20T08:16:34.628Z,29.40
2023-01-20T08:19:02.822Z,25.67
2023-01-20T08:21:32.951Z,29.27
2023-01-20T08:24:02.620Z,31.83
2023-01-20T08:26:31.517Z,30.77
2023-01-20T08:29:04.358Z,28.07
2023-01-20T08:31:34.415Z,25.73
2023-01-20T08:34:02.715Z,28.67
2023-01-20T08:36:33.483Z,31.63
2023-01-20T08:39:05.363Z,31.47
2023-01-20T08:41:36.740Z,32.43
2023-01-20T08:44:07.877Z,33.00
2023-01-20T08:46:41.650Z,26.57
2023-01-20T08:49:12.039Z,27.43
2023-01-20T08:51:40.799Z,26.30
2023-01-20T08:54:09.586Z,27.23
2023-01-20T08:56:37.833Z,32.13
2023-01-20T08:59:06.180Z,26.63
2023-01-20T09:01:37.888Z,33.70
2023-01-20T09:04:08.151Z,29.50
2023-01-20T09:07:02.133Z,27.43
2023-01-20T09:09:30.360Z,27.73
2023-01-20T09:11:58.568Z,26.03
2023-01-20T09:14:26.812Z,24.83
2023-01-20T09:16:56.357Z,22.90
2023-01-20T09:19:24.879Z,27.70
2023-01-20T09:21:52.997Z,23.27
2023-01-20T09:24:21.354Z,24.70
2023-01-20T09:26:50.339Z,23.10
2023-01-20T09:29:21.564Z,21.03
2023-01-20T09:31:53.083Z,21.03
2023-01-20T09:34:24.073Z,23.10
2023-01-20T09:36:53.616Z,20.40
2023-01-20T09:39:40.079Z,20.17
2023-01-20T09:42:44.265Z,19.67
2023-01-20T09:45:25.207Z,18.70
2023-01-20T09:48:02.521Z,17.33
2023-01-20T09:51:03.200Z,19.90
2023-01-20T09:53:52.570Z,22.33
2023-01-20T09:56:25.012Z,23.80
2023-01-20T09:59:01.930Z,24.30
2023-01-20T10:01:35.719Z,20.40
2023-01-20T10:04:11.679Z,18.47
2023-01-20T10:06:45.501Z,17.07
2023-01-20T10:09:22.661Z,20.23
2023-01-20T10:11:52.911Z,19.17
2023-01-20T10:14:26.487Z,19.00
2023-01-20T10:17:00.690Z,20.73
2023-01-20T10:19:42.417Z,20.47
2023-01-20T10:22:19.243Z,17.77
2023-01-20T10:24:55.492Z,17.97
2023-01-20T10:27:26.559Z,23.73
2023-01-20T10:30:05.822Z,16.67
2023-01-20T10:32:38.031Z,16.70
2023-01-20T10:35:16.376Z,18.57
2023-01-20T10:37:46.367Z,17.63
2023-01-20T10:40:33.544Z,18.13
2023-01-20T10:43:11.855Z,18.60
2023-01-20T10:45:57.924Z,18.80
2023-01-20T10:48:56.607Z,18.50
2023-01-20T10:51:34.402Z,16.63
2023-01-20T10:54:13.796Z,15.70
2023-01-20T10:56:53.442Z,16.77
2023-01-20T10:59:30.011Z,19.70
2023-01-20T11:02:12.448Z,20.70
2023-01-20T11:04:40.943Z,19.27
2023-01-20T11:07:17.348Z,22.50
2023-01-20T11:09:48.857Z,21.10
2023-01-20T11:12:21.520Z,19.83
2023-01-20T11:14:50.200Z,16.70
2023-01-20T11:17:21.059Z,17.00
2023-01-20T11:19:53.003Z,17.37
2023-01-20T11:22:30.247Z,22.23
2023-01-20T11:25:04.025Z,22.20
2023-01-20T11:27:41.681Z,26.57
2023-01-20T11:30:25.876Z,18.97
2023-01-20T11:33:10.659Z,20.27
2023-01-20T11:35:38.847Z,24.43
2023-01-20T11:38:25.390Z,21.03
2023-01-20T11:40:57.331Z,22.37
2023-01-20T11:43:35.956Z,22.77
2023-01-20T11:46:23.702Z,20.73
2023-01-20T11:48:52.250Z,20.27
2023-01-20T11:51:23.073Z,23.03
2023-01-20T11:53:51.644Z,22.07
2023-01-20T11:56:24.779Z,26.03
2023-01-20T11:58:57.708Z,24.67
2023-01-20T12:01:27.937Z,24.27
2023-01-20T12:04:40.657Z,21.17
2023-01-20T12:07:13.035Z,25.70
2023-01-20T12:09:45.538Z,22.60
2023-01-20T12:12:28.678Z,22.93
2023-01-20T12:15:03.342Z,19.33
2023-01-20T12:17:41.223Z,20.23
2023-01-20T12:20:21.959Z,23.23
2023-01-20T12:23:20.987Z,21.03
2023-01-20T12:25:56.734Z,20.77
2023-01-20T12:28:33.704Z,23.63
2023-01-20T12:31:03.741Z,20.03
2023-01-20T12:33:34.881Z,22.00
2023-01-20T12:36:23.488Z,22.80
2023-01-20T12:39:26.210Z,29.80
2023-01-20T12:42:40.948Z,24.20
2023-01-20T12:45:27.945Z,18.07
2023-01-20T12:48:15.323Z,22.87
2023-01-20T12:51:07.539Z,21.00
2023-01-20T12:53:58.423Z,22.27
2023-01-20T12:56:37.135Z,22.13
2023-01-20T12:59:19.769Z,22.90
2023-01-20T13:02:10.356Z,21.23
2023-01-20T13:05:12.762Z,23.40
2023-01-20T13:07:56.004Z,23.50
2023-01-20T13:10:49.509Z,24.33
2023-01-20T13:13:40.238Z,25.13
2023-01-20T13:16:23.348Z,24.03
2023-01-20T13:19:04.357Z,22.27
2023-01-20T13:21:34.261Z,23.87
2023-01-20T13:24:06.161Z,22.33
2023-01-20T13:26:36.382Z,25.17
2023-01-20T13:29:04.736Z,23.40
2023-01-20T13:31:46.671Z,23.50
2023-01-20T13:34:36.617Z,22.70
2023-01-20T13:37:28.630Z,21.93
2023-01-20T13:39:59.752Z,23.03
2023-01-20T13:42:51.444Z,20.43
2023-01-20T13:45:26.384Z,21.70
2023-01-20T13:48:23.997Z,20.63
2023-01-20T13:50:53.910Z,19.33
2023-01-20T13:53:30.138Z,18.10
2023-01-20T13:56:29.831Z,19.53
2023-01-20T13:58:58.393Z,19.20
2023-01-20T14:01:27.787Z,18.47
2023-01-20T14:04:07.482Z,19.63
2023-01-20T14:06:45.996Z,17.37
2023-01-20T14:09:21.370Z,20.93
2023-01-20T14:11:55.111Z,19.20
2023-01-20T14:14:26.603Z,17.00
2023-01-20T14:16:57.250Z,18.77
2023-01-20T14:19:31.932Z,13.80
2023-01-20T14:22:05.665Z,14.83
2023-01-20T14:24:46.599Z,16.10
2023-01-20T14:27:20.400Z,16.37
2023-01-20T14:29:50.850Z,14.40
2023-01-20T14:32:22.576Z,15.90
2023-01-20T14:34:51.421Z,14.80
2023-01-20T14:37:31.192Z,13.40
2023-01-20T14:40:02.627Z,16.87
2023-01-20T14:42:31.126Z,19.67
2023-01-20T14:44:59.796Z,16.40
2023-01-20T14:47:30.111Z,13.70
2023-01-20T14:49:58.500Z,13.77
2023-01-20T14:52:32.266Z,12.90
2023-01-20T14:55:00.450Z,16.53
2023-01-20T14:57:30.868Z,13.97
2023-01-20T15:00:24.277Z,15.23
2023-01-20T15:03:10.255Z,14.27
2023-01-20T15:05:58.234Z,13.53
2023-01-20T15:08:56.891Z,13.03
2023-01-20T15:11:32.975Z,12.27
2023-01-20T15:14:13.104Z,14.33
2023-01-20T15:17:00.541Z,13.43
2023-01-20T15:19:36.583Z,14.17
2023-01-20T15:22:25.208Z,17.30
2023-01-20T15:24:55.815Z,14.07
2023-01-20T15:27:31.490Z,12.93
2023-01-20T15:30:14.215Z,16.40
2023-01-20T15:32:42.569Z,12.40
2023-01-20T15:35:15.002Z,15.50
2023-01-20T15:37:44.354Z,13.20
2023-01-20T15:40:22.909Z,14.53
2023-01-20T15:42:53.325Z,14.23
2023-01-20T15:45:22.514Z,18.37
2023-01-20T15:47:51.065Z,14.43
2023-01-20T15:50:22.234Z,16.83
2023-01-20T15:52:51.161Z,16.23
2023-01-20T15:55:21.248Z,14.90
2023-01-20T15:57:52.997Z,13.83
2023-01-20T16:00:24.574Z,12.30
2023-01-20T16:02:53.110Z,16.77
2023-01-20T16:05:22.119Z,14.10
2023-01-20T16:07:50.417Z,12.83
2023-01-20T16:10:21.349Z,13.13
2023-01-20T16:12:49.572Z,13.73
2023-01-20T16:15:19.604Z,16.57
2023-01-20T16:17:47.995Z,14.27
2023-01-20T16:20:22.844Z,13.30
2023-01-20T16:22:51.645Z,11.43
2023-01-20T16:25:22.377Z,12.93
2023-01-20T16:27:51.015Z,12.87
2023-01-20T16:30:21.963Z,10.70
2023-01-20T16:32:50.189Z,11.03
2023-01-20T16:35:20.813Z,15.10
2023-01-20T16:37:49.178Z,12.90
2023-01-20T16:40:20.245Z,14.03
2023-01-20T16:42:49.942Z,15.07
2023-01-20T16:45:25.709Z,13.37
2023-01-20T16:47:54.083Z,18.17
2023-01-20T16:50:22.918Z,17.53
2023-01-20T16:52:51.090Z,17.30
2023-01-20T16:55:20.124Z,13.87
2023-01-20T16:57:49.695Z,11.47
2023-01-20T17:00:19.782Z,10.63
2023-01-20T17:02:51.623Z,13.50
2023-01-20T17:05:22.588Z,14.73
2023-01-20T17:07:51.206Z,12.20
2023-01-20T17:10:20.812Z,13.23
2023-01-20T17:12:52.630Z,13.90
2023-01-20T17:15:20.887Z,11.67
2023-01-20T17:17:50.269Z,16.20
2023-01-20T17:20:18.861Z,12.73
2023-01-20T17:22:47.044Z,14.07
2023-01-20T17:25:17.849Z,15.03
2023-01-20T17:27:46.248Z,13.97
2023-01-20T17:30:19.619Z,55.20
2023-01-20T17:32:49.185Z,103.07
2023-01-20T17:35:18.922Z,21.20
2023-01-20T17:37:47.314Z,17.63
2023-01-20T17:40:17.088Z,9.77
2023-01-20T17:42:46.393Z,13.43
2023-01-20T17:45:14.933Z,16.40
2023-01-20T17:47:44.466Z,13.23
2023-01-20T17:50:12.795Z,11.43
2023-01-20T17:52:41.096Z,10.63
2023-01-20T17:55:10.376Z,12.93
2023-01-20T17:57:38.521Z,12.17
2023-01-20T18:00:08.305Z,9.80
2023-01-20T18:02:36.548Z,13.40
2023-01-20T18:05:07.268Z,13.70
2023-01-20T18:07:35.558Z,16.77
2023-01-20T18:10:04.468Z,28.80
2023-01-20T18:12:32.848Z,24.40
2023-01-20T18:15:01.037Z,26.40
2023-01-20T18:17:34.386Z,22.90
2023-01-20T18:20:08.726Z,20.00
2023-01-20T18:22:38.803Z,21.13
2023-01-20T18:25:07.646Z,23.53
2023-01-20T18:27:35.892Z,17.90
2023-01-20T18:30:04.358Z,23.50
2023-01-20T18:32:32.577Z,17.37
2023-01-20T18:35:00.830Z,12.87
2023-01-20T18:37:29.182Z,19.80
2023-01-20T18:39:58.989Z,14.27
2023-01-20T18:42:27.427Z,13.37
2023-01-20T18:44:55.661Z,14.80
2023-01-20T18:47:23.793Z,14.73
2023-01-20T18:49:52.039Z,15.60
2023-01-20T18:52:20.188Z,12.83
2023-01-20T18:54:48.378Z,16.80
2023-01-20T18:57:17.928Z,15.90
2023-01-20T18:59:46.100Z,11.00
2023-01-20T19:02:14.285Z,13.90
2023-01-20T19:04:42.532Z,14.83
2023-01-20T19:07:10.676Z,12.17
2023-01-20T19:09:38.843Z,11.23
2023-01-20T19:12:07.869Z,13.50
2023-01-20T19:14:37.446Z,11.70
2023-01-20T19:17:05.585Z,11.70
2023-01-20T19:19:34.924Z,12.73
2023-01-20T19:22:03.072Z,9.90
2023-01-20T19:24:31.279Z,11.33
2023-01-20T19:27:03.279Z,17.13
2023-01-20T19:29:31.675Z,11.97
2023-01-20T19:32:01.181Z,15.47
2023-01-20T19:34:29.450Z,11.87
2023-01-20T19:36:58.766Z,15.63
2023-01-20T19:39:27.328Z,18.53
2023-01-20T19:41:55.716Z,16.57
2023-01-20T19:44:24.586Z,16.40
2023-01-20T19:46:52.784Z,14.07
2023-01-20T19:49:22.423Z,13.73
2023-01-20T19:51:50.995Z,21.73
2023-01-20T19:54:19.480Z,18.23
2023-01-20T19:56:47.673Z,16.17
2023-01-20T19:59:16.091Z,16.07
2023-01-20T20:01:44.384Z,12.67
2023-01-20T20:04:13.982Z,17.00
2023-01-20T20:06:48.417Z,11.43
2023-01-20T20:09:19.999Z,11.93
2023-01-20T20:11:48.756Z,11.80
2023-01-20T20:14:20.944Z,12.77
2023-01-20T20:16:49.987Z,11.97
2023-01-20T20:19:20.391Z,12.53
2023-01-20T20:21:50.151Z,12.93
2023-01-20T20:24:19.670Z,15.73
2023-01-20T20:26:48.802Z,13.33
2023-01-20T20:29:19.608Z,12.87
2023-01-20T20:31:48.319Z,15.27
2023-01-20T20:34:19.727Z,16.87
2023-01-20T20:36:49.438Z,20.60
2023-01-20T20:39:19.666Z,16.83
2023-01-20T20:41:48.340Z,21.67
2023-01-20T20:44:16.655Z,19.40
2023-01-20T20:46:47.052Z,15.63
2023-01-20T20:49:16.698Z,23.53
2023-01-20T20:51:45.189Z,24.33
2023-01-20T20:54:16.924Z,23.83
2023-01-20T20:56:45.680Z,20.90
2023-01-20T20:59:13.895Z,20.60
2023-01-20T21:01:42.155Z,15.77
2023-01-20T21:04:11.516Z,16.63
2023-01-20T21:06:39.741Z,23.17
2023-01-20T21:09:10.860Z,18.33
2023-01-20T21:11:43.030Z,14.37
2023-01-20T21:14:11.505Z,15.67
2023-01-20T21:16:40.026Z,13.63
2023-01-20T21:19:09.012Z,15.50
2023-01-20T21:21:37.188Z,16.37
2023-01-20T21:24:09.907Z,18.90
2023-01-20T21:26:38.388Z,17.00
2023-01-20T21:29:08.217Z,14.37
2023-01-20T21:31:36.915Z,15.47
2023-01-20T21:34:05.152Z,17.40
2023-01-20T21:36:34.522Z,17.13
2023-01-20T21:39:02.779Z,23.10
2023-01-20T21:41:30.988Z,24.53
2023-01-20T21:44:16.556Z,27.93
2023-01-20T21:46:46.135Z,23.33
2023-01-20T21:49:32.178Z,20.37
2023-01-20T21:52:18.164Z,17.87
2023-01-20T21:54:46.445Z,18.13
2023-01-20T21:57:15.321Z,15.10
2023-01-20T21:59:45.631Z,17.00
2023-01-20T22:02:16.295Z,14.33
2023-01-20T22:04:46.166Z,17.17
2023-01-20T22:07:15.405Z,16.73
2023-01-20T22:09:43.650Z,12.90
2023-01-20T22:12:12.115Z,14.00
2023-01-20T22:14:40.955Z,12.93
2023-01-20T22:17:11.032Z,15.67
2023-01-20T22:19:41.272Z,19.37
2023-01-20T22:22:09.437Z,15.97
2023-01-20T22:24:37.708Z,18.80
2023-01-20T22:27:05.951Z,19.77
2023-01-20T22:29:34.173Z,15.13
2023-01-20T22:32:04.140Z,15.03
2023-01-20T22:34:32.753Z,12.27
2023-01-20T22:37:02.281Z,15.33
2023-01-20T22:39:30.553Z,18.93
2023-01-20T22:41:58.860Z,16.50
2023-01-20T22:44:27.037Z,17.03
2023-01-20T22:46:55.262Z,15.20
2023-01-20T22:49:23.433Z,16.83
2023-01-20T22:51:52.245Z,16.50
2023-01-20T22:54:21.925Z,19.60
2023-01-20T22:56:50.109Z,16.67
2023-01-20T22:59:18.451Z,18.33
2023-01-20T23:01:47.273Z,18.43
2023-01-20T23:04:21.984Z,18.83
2023-01-20T23:06:50.159Z,18.27
2023-01-20T23:09:18.325Z,20.93
2023-01-20T23:11:49.845Z,18.00
2023-01-20T23:14:38.180Z,18.57
2023-01-20T23:17:06.362Z,14.13
2023-01-20T23:19:34.503Z,15.50
2023-01-20T23:22:02.684Z,18.50
2023-01-20T23:24:30.856Z,14.50
2023-01-20T23:27:00.423Z,18.63
2023-01-20T23:29:28.857Z,16.57
2023-01-20T23:31:58.509Z,15.80
2023-01-20T23:34:26.894Z,14.37
2023-01-20T23:36:55.082Z,17.87
2023-01-20T23:39:23.357Z,15.07
2023-01-20T23:41:52.913Z,16.90
2023-01-20T23:44:22.545Z,14.20
2023-01-20T23:46:51.141Z,17.67
2023-01-20T23:49:21.649Z,19.70
2023-01-20T23:51:50.666Z,17.90
2023-01-20T23:54:18.845Z,15.50
2023-01-20T23:56:47.093Z,15.93
2023-01-20T23:59:15.282Z,15.07
